Airfield :
LOGIN :

Register | Disclaimer

   EN    FR    IT 

 










Legend :    VFR   Marginal VFR   IFR   Intensive IFR   Very Intensive IFR
Visi :
Ceiling :
>= 8 km
>= 3000ft
5 to 8 km
1000 to 3000 ft
1500m to 5 km
500 to 1000 ft
800 to 1500m
200 to 500 ft
< 800m
< 200 ft
Symbols :   Thunderstorms  Fog  Heavy snow  Heavy precipitations  Wind > 20 kt
SIGMETs :     Misc.  Thunderstorms  Icing  Turbulence  Mountain Waves  Volcanic Ashes







- Airport Elevation : 84 ft
- Download approach charts


LFBC - Cazaux

CURRENT METAR :
  • 230000Z AUTO 11002KT CAVOK 12/11 Q1028

EXPIRED METARs :
  • 222330Z AUTO VRB02KT 9999 FEW038 OVC054 12/11 Q1028
  • 222300Z AUTO 00000KT 9999 FEW030 BKN040 BKN056 12/11 Q1028
  • 222230Z AUTO 12001KT 9999 FEW043 SCT056 BKN240 12/10 Q1028
  • 222200Z AUTO 10003KT 9999 FEW028 OVC056 12/10 Q1028
  • 222130Z AUTO 00000KT 9999 FEW033 BKN045 OVC056 12/10 Q1028

TAF AMD TAF LFBC
Valid from the 22 at 12:00 until the 23 at 09:00 UTC


221206Z 2212/2309 30011KT 9999 SCT030 BKN066
TEMPO 2212/2215 31015G25KT
PROB30
TEMPO 2212/2215 -SHRA SCT025TCU
BECMG 2219/2221 13005KT
No reported NOTAMs for that airfield.



MET'MAP, your aeronautical weather chart ! - Copyright ORBIFLY December 2007 - Disclaimer

ORBIFLY MET'MAP TEAM :

Programming & Development : Alexandra Zaïnal
Concept & Development : Baudouin d'Aumeries
Co-Development & Prog : Marc-Olivier Méhu
Technical & hardware support : Manuel Goepfert

Contact : metmap@orbifly.com




SOURCES & CREDITS :

   NOAA